createdAt,value
2017-11-12T00:00:24.428Z,1000.73
2017-11-12T00:01:24.379Z,1000.72
2017-11-12T00:02:24.381Z,1000.71
2017-11-12T00:03:24.373Z,1000.73
2017-11-12T00:04:24.367Z,1000.71
2017-11-12T00:05:24.368Z,1000.71
2017-11-12T00:06:24.368Z,1000.67
2017-11-12T00:07:24.353Z,1000.67
2017-11-12T00:08:24.358Z,1000.75
2017-11-12T00:09:24.360Z,1000.73
2017-11-12T00:10:24.368Z,1000.74
2017-11-12T00:11:24.364Z,1000.73
2017-11-12T00:12:24.348Z,1000.72
2017-11-12T00:13:24.349Z,1000.73
2017-11-12T00:14:24.322Z,1000.69
2017-11-12T00:15:24.323Z,1000.75
2017-11-12T00:16:24.319Z,1000.64
2017-11-12T00:17:24.313Z,1000.62
2017-11-12T00:18:24.314Z,1000.60
2017-11-12T00:19:24.302Z,1000.57
2017-11-12T00:20:24.295Z,1000.60
2017-11-12T00:21:24.304Z,1000.58
2017-11-12T00:22:24.299Z,1000.65
2017-11-12T00:23:24.288Z,1000.62
2017-11-12T00:24:24.282Z,1000.64
2017-11-12T00:25:24.282Z,1000.65
2017-11-12T00:26:24.278Z,1000.66
2017-11-12T00:27:24.269Z,1000.65
2017-11-12T00:28:24.265Z,1000.65
2017-11-12T00:29:24.262Z,1000.65
2017-11-12T00:30:24.260Z,1000.66
2017-11-12T00:31:24.253Z,1000.66
2017-11-12T00:32:24.265Z,1000.66
2017-11-12T00:33:24.244Z,1000.63
2017-11-12T00:34:24.238Z,1000.59
2017-11-12T00:35:24.244Z,1000.62
2017-11-12T00:36:24.232Z,1000.62
2017-11-12T00:37:24.232Z,1000.65
2017-11-12T00:38:24.223Z,1000.63
2017-11-12T00:39:24.222Z,1000.60
2017-11-12T00:40:24.212Z,1000.59
2017-11-12T00:41:24.209Z,1000.58
2017-11-12T00:42:24.214Z,1000.58
2017-11-12T00:43:24.204Z,1000.57
2017-11-12T00:44:24.197Z,1000.54
2017-11-12T00:45:24.191Z,1000.54
2017-11-12T00:46:24.187Z,1000.55
2017-11-12T00:47:24.180Z,1000.55
2017-11-12T00:48:24.195Z,1000.52
2017-11-12T00:49:24.173Z,1000.53
2017-11-12T00:50:24.176Z,1000.49
2017-11-12T00:51:24.170Z,1000.55
2017-11-12T00:52:24.164Z,1000.49
2017-11-12T00:53:24.163Z,1000.51
2017-11-12T00:54:24.150Z,1000.49
2017-11-12T00:55:24.153Z,1000.46
2017-11-12T00:56:24.144Z,1000.48
2017-11-12T00:57:24.140Z,1000.50
2017-11-12T00:58:24.134Z,1000.47
2017-11-12T00:59:24.133Z,1000.40
2017-11-12T01:00:24.131Z,1000.44
2017-11-12T01:01:24.124Z,1000.46
2017-11-12T01:02:24.135Z,1000.49
2017-11-12T01:03:24.118Z,1000.49
2017-11-12T01:04:24.116Z,1000.48
2017-11-12T01:05:24.115Z,1000.49
2017-11-12T01:06:24.109Z,1000.54
2017-11-12T01:07:24.129Z,1000.57
2017-11-12T01:08:24.092Z,1000.61
2017-11-12T01:09:24.097Z,1000.59
2017-11-12T01:10:24.092Z,1000.54
2017-11-12T01:11:24.077Z,1000.56
2017-11-12T01:12:24.079Z,1000.59
2017-11-12T01:13:24.075Z,1000.58
2017-11-12T01:14:24.074Z,1000.59
2017-11-12T01:15:24.058Z,1000.58
2017-11-12T01:16:24.059Z,1000.61
2017-11-12T01:17:24.051Z,1000.62
2017-11-12T01:18:24.054Z,1000.63
2017-11-12T01:19:24.042Z,1000.57
2017-11-12T01:20:24.039Z,1000.60
2017-11-12T01:21:24.032Z,1000.61
2017-11-12T01:22:24.029Z,1000.57
2017-11-12T01:23:24.029Z,1000.56
2017-11-12T01:24:24.025Z,1000.52
2017-11-12T01:25:24.027Z,1000.59
2017-11-12T01:26:24.011Z,1000.55
2017-11-12T01:27:24.011Z,1000.54
2017-11-12T01:28:24.010Z,1000.47
2017-11-12T01:29:24.003Z,1000.51
2017-11-12T01:30:23.995Z,1000.49
2017-11-12T01:31:23.994Z,1000.48
2017-11-12T01:32:23.992Z,1000.48
2017-11-12T01:33:23.985Z,1000.53
2017-11-12T01:34:23.981Z,1000.51
2017-11-12T01:35:23.979Z,1000.52
2017-11-12T01:36:23.971Z,1000.46
2017-11-12T01:37:23.965Z,1000.47
2017-11-12T01:38:23.971Z,1000.49
2017-11-12T01:39:23.965Z,1000.45
2017-11-12T01:40:23.954Z,1000.45
2017-11-12T01:41:23.955Z,1000.40
2017-11-12T01:42:23.950Z,1000.44
2017-11-12T01:43:23.943Z,1000.42
2017-11-12T01:44:23.935Z,1000.34
2017-11-12T01:45:23.932Z,1000.39
2017-11-12T01:46:23.932Z,1000.41
2017-11-12T01:47:23.919Z,1000.36
2017-11-12T01:48:23.923Z,1000.35
2017-11-12T01:49:23.913Z,1000.36
2017-11-12T01:50:23.911Z,1000.39
2017-11-12T01:51:23.901Z,1000.41
2017-11-12T01:52:23.905Z,1000.38
2017-11-12T01:53:23.900Z,1000.33
2017-11-12T01:54:23.893Z,1000.37
2017-11-12T01:55:23.888Z,1000.37
2017-11-12T01:56:23.883Z,1000.34
2017-11-12T01:57:23.885Z,1000.39
2017-11-12T01:58:23.873Z,1000.35
2017-11-12T01:59:23.869Z,1000.41
2017-11-12T02:00:23.869Z,1000.37
2017-11-12T02:01:23.864Z,1000.39
2017-11-12T02:02:23.865Z,1000.37
2017-11-12T02:03:23.851Z,1000.37
2017-11-12T02:04:23.861Z,1000.34
2017-11-12T02:05:23.843Z,1000.30
2017-11-12T02:06:23.841Z,1000.30
2017-11-12T02:07:23.832Z,1000.32
2017-11-12T02:08:23.836Z,1000.30
2017-11-12T02:09:23.828Z,1000.30
2017-11-12T02:10:23.844Z,1000.29
2017-11-12T02:11:23.823Z,1000.33
2017-11-12T02:12:23.815Z,1000.28
2017-11-12T02:13:23.813Z,1000.32
2017-11-12T02:14:23.804Z,1000.26
2017-11-12T02:15:23.800Z,1000.24
2017-11-12T02:16:23.795Z,1000.25
2017-11-12T02:17:23.792Z,1000.26
2017-11-12T02:18:23.787Z,1000.23
2017-11-12T02:19:23.780Z,1000.23
2017-11-12T02:20:23.782Z,1000.26
2017-11-12T02:21:23.773Z,1000.32
2017-11-12T02:22:23.771Z,1000.31
2017-11-12T02:23:23.763Z,1000.33
2017-11-12T02:24:23.794Z,1000.29
2017-11-12T02:25:23.754Z,1000.33
2017-11-12T02:26:23.760Z,1000.34
2017-11-12T02:27:23.745Z,1000.36
2017-11-12T02:28:23.742Z,1000.37
2017-11-12T02:29:23.740Z,1000.35
2017-11-12T02:30:23.750Z,1000.38
2017-11-12T02:31:23.732Z,1000.38
2017-11-12T02:32:23.732Z,1000.36
2017-11-12T02:33:23.723Z,1000.32
2017-11-12T02:34:23.712Z,1000.36
2017-11-12T02:35:23.709Z,1000.33
2017-11-12T02:36:23.704Z,1000.37
2017-11-12T02:37:23.704Z,1000.32
2017-11-12T02:38:23.699Z,1000.29
2017-11-12T02:39:23.692Z,1000.30
2017-11-12T02:40:23.692Z,1000.26
2017-11-12T02:41:23.688Z,1000.26
2017-11-12T02:42:23.681Z,1000.26
2017-11-12T02:43:23.679Z,1000.26
2017-11-12T02:44:23.675Z,1000.26
2017-11-12T02:45:23.665Z,1000.24
2017-11-12T02:46:23.662Z,1000.26
2017-11-12T02:47:23.659Z,1000.19
2017-11-12T02:48:23.658Z,1000.21
2017-11-12T02:49:23.650Z,1000.21
2017-11-12T02:50:23.648Z,1000.21
2017-11-12T02:51:23.642Z,1000.20
2017-11-12T02:52:23.636Z,1000.19
2017-11-12T02:53:23.633Z,1000.14
2017-11-12T02:54:23.634Z,1000.15
2017-11-12T02:55:23.629Z,1000.14
2017-11-12T02:56:23.618Z,1000.13
2017-11-12T02:57:23.622Z,1000.14
2017-11-12T02:58:23.612Z,1000.15
2017-11-12T02:59:23.609Z,1000.18
2017-11-12T03:00:23.605Z,1000.23
2017-11-12T03:01:23.603Z,1000.22
2017-11-12T03:02:23.592Z,1000.17
2017-11-12T03:03:23.593Z,1000.18
2017-11-12T03:04:23.587Z,1000.20
2017-11-12T03:05:23.588Z,1000.19
2017-11-12T03:06:23.579Z,1000.19
2017-11-12T03:07:23.577Z,1000.20
2017-11-12T03:08:23.572Z,1000.20
2017-11-12T03:09:23.563Z,1000.18
2017-11-12T03:10:23.558Z,1000.17
2017-11-12T03:11:23.560Z,1000.17
2017-11-12T03:12:23.546Z,1000.15
2017-11-12T03:13:23.546Z,1000.20
2017-11-12T03:14:23.539Z,1000.19
2017-11-12T03:15:23.548Z,1000.16
2017-11-12T03:16:23.536Z,1000.17
2017-11-12T03:17:23.532Z,1000.16
2017-11-12T03:18:23.523Z,1000.16
2017-11-12T03:19:23.523Z,1000.16
2017-11-12T03:20:23.514Z,1000.15
2017-11-12T03:21:23.513Z,1000.16
2017-11-12T03:22:23.507Z,1000.16
2017-11-12T03:23:23.500Z,1000.15
2017-11-12T03:24:23.498Z,1000.09
2017-11-12T03:25:23.489Z,1000.14
2017-11-12T03:26:23.491Z,1000.15
2017-11-12T03:27:23.488Z,1000.13
2017-11-12T03:28:23.482Z,1000.08
2017-11-12T03:29:23.472Z,1000.04
2017-11-12T03:30:23.475Z,1000.00
2017-11-12T03:31:23.467Z,1000.01
2017-11-12T03:32:23.461Z,1000.00
2017-11-12T03:33:23.459Z,1000.00
2017-11-12T03:34:23.460Z,999.97
2017-11-12T03:35:23.452Z,999.99
2017-11-12T03:36:23.445Z,999.99
2017-11-12T03:37:23.443Z,999.96
2017-11-12T03:38:23.440Z,999.98
2017-11-12T03:39:23.428Z,999.96
2017-11-12T03:40:23.425Z,999.98
2017-11-12T03:41:23.423Z,999.93
2017-11-12T03:42:23.416Z,999.93
2017-11-12T03:43:23.412Z,999.99
2017-11-12T03:44:23.412Z,999.94
2017-11-12T03:45:23.415Z,999.99
2017-11-12T03:46:23.401Z,999.99
2017-11-12T03:47:23.394Z,999.96
2017-11-12T03:48:23.393Z,999.93
2017-11-12T03:49:23.386Z,999.97
2017-11-12T03:50:23.383Z,999.97
2017-11-12T03:51:23.379Z,999.93
2017-11-12T03:52:23.373Z,999.99
2017-11-12T03:53:23.381Z,999.99
2017-11-12T03:54:23.361Z,999.98
2017-11-12T03:55:23.370Z,999.97
2017-11-12T03:56:23.361Z,999.96
2017-11-12T03:57:23.358Z,999.92
2017-11-12T03:58:23.346Z,999.87
2017-11-12T03:59:23.342Z,999.84
2017-11-12T04:00:23.336Z,999.82
2017-11-12T04:01:23.337Z,999.75
2017-11-12T04:02:23.331Z,999.79
2017-11-12T04:03:23.323Z,999.81
2017-11-12T04:04:23.329Z,999.81
2017-11-12T04:05:23.314Z,999.79
2017-11-12T04:06:23.314Z,999.85
2017-11-12T04:07:23.312Z,999.82
2017-11-12T04:08:23.305Z,999.84
2017-11-12T04:09:23.350Z,999.86
2017-11-12T04:10:23.302Z,999.85
2017-11-12T04:11:23.292Z,999.86
2017-11-12T04:12:23.282Z,999.88
2017-11-12T04:13:23.281Z,999.85
2017-11-12T04:14:23.274Z,999.82
2017-11-12T04:15:23.292Z,999.83
2017-11-12T04:16:23.268Z,999.79
2017-11-12T04:17:23.269Z,999.75
2017-11-12T04:18:23.264Z,999.72
2017-11-12T04:19:23.256Z,999.71
2017-11-12T04:20:23.254Z,999.72
2017-11-12T04:21:23.251Z,999.69
2017-11-12T04:22:23.250Z,999.68
2017-11-12T04:23:23.232Z,999.66
2017-11-12T04:24:23.232Z,999.66
2017-11-12T04:25:23.227Z,999.68
2017-11-12T04:26:23.225Z,999.68
2017-11-12T04:27:23.226Z,999.68
2017-11-12T04:28:23.211Z,999.67
2017-11-12T04:29:23.220Z,999.67
2017-11-12T04:30:23.211Z,999.67
2017-11-12T04:31:23.206Z,999.73
2017-11-12T04:32:23.194Z,999.72
2017-11-12T04:33:23.199Z,999.69
2017-11-12T04:34:23.186Z,999.74
2017-11-12T04:35:23.185Z,999.70
2017-11-12T04:36:23.182Z,999.66
2017-11-12T04:37:23.173Z,999.66
2017-11-12T04:38:23.171Z,999.66
2017-11-12T04:39:23.167Z,999.62
2017-11-12T04:40:23.164Z,999.62
2017-11-12T04:41:23.192Z,999.63
2017-11-12T04:42:23.153Z,999.66
2017-11-12T04:43:23.152Z,999.61
2017-11-12T04:44:23.153Z,999.61
2017-11-12T04:45:23.153Z,999.58
2017-11-12T04:46:23.140Z,999.56
2017-11-12T04:47:23.131Z,999.49
2017-11-12T04:48:23.127Z,999.47
2017-11-12T04:49:23.120Z,999.49
2017-11-12T04:50:23.125Z,999.46
2017-11-12T04:51:23.112Z,999.47
2017-11-12T04:52:23.111Z,999.45
2017-11-12T04:53:23.106Z,999.46
2017-11-12T04:54:23.109Z,999.45
2017-11-12T04:55:23.099Z,999.47
2017-11-12T04:56:23.096Z,999.45
2017-11-12T04:57:23.089Z,999.44
2017-11-12T04:58:23.081Z,999.42
2017-11-12T04:59:23.081Z,999.43
2017-11-12T05:00:23.076Z,999.45
2017-11-12T05:01:23.069Z,999.42
2017-11-12T05:02:23.071Z,999.38
2017-11-12T05:03:23.062Z,999.39
2017-11-12T05:04:23.056Z,999.38
2017-11-12T05:05:23.052Z,999.37
2017-11-12T05:06:23.053Z,999.37
2017-11-12T05:07:23.040Z,999.30
2017-11-12T05:08:23.048Z,999.34
2017-11-12T05:09:23.038Z,999.41
2017-11-12T05:10:23.029Z,999.41
2017-11-12T05:11:23.029Z,999.44
2017-11-12T05:12:23.021Z,999.41
2017-11-12T05:13:23.022Z,999.38
2017-11-12T05:14:23.014Z,999.35
2017-11-12T05:15:23.014Z,999.40
2017-11-12T05:16:23.008Z,999.42
2017-11-12T05:17:23.069Z,999.34
2017-11-12T05:18:22.995Z,999.35
2017-11-12T05:19:23.005Z,999.37
2017-11-12T05:20:22.984Z,999.35
2017-11-12T05:21:22.993Z,999.33
2017-11-12T05:22:22.983Z,999.29
2017-11-12T05:23:22.993Z,999.31
2017-11-12T05:24:22.970Z,999.33
2017-11-12T05:25:22.962Z,999.31
2017-11-12T05:26:22.966Z,999.27
2017-11-12T05:27:22.955Z,999.23
2017-11-12T05:28:22.956Z,999.18
2017-11-12T05:29:22.944Z,999.20
2017-11-12T05:30:22.943Z,999.11
2017-11-12T05:31:22.937Z,999.11
2017-11-12T05:32:22.930Z,999.07
2017-11-12T05:33:22.923Z,999.04
2017-11-12T05:34:22.923Z,999.01
2017-11-12T05:35:22.914Z,998.96
2017-11-12T05:36:22.915Z,998.97
2017-11-12T05:37:22.907Z,998.95
2017-11-12T05:38:22.907Z,998.90
2017-11-12T05:39:22.902Z,998.94
2017-11-12T05:40:22.894Z,998.94
2017-11-12T05:41:22.905Z,998.91
2017-11-12T05:42:22.892Z,998.93
2017-11-12T05:43:22.878Z,998.88
2017-11-12T05:44:22.885Z,998.87
2017-11-12T05:45:22.872Z,998.87
2017-11-12T05:46:22.880Z,998.84
2017-11-12T05:47:22.863Z,998.84
2017-11-12T05:48:22.864Z,998.84
2017-11-12T05:49:22.853Z,998.83
2017-11-12T05:50:22.855Z,998.88
2017-11-12T05:51:22.846Z,998.83
2017-11-12T05:52:22.840Z,998.84
2017-11-12T05:53:22.840Z,998.82
2017-11-12T05:54:22.831Z,998.83
2017-11-12T05:55:22.834Z,998.83
2017-11-12T05:56:22.823Z,998.83
2017-11-12T05:57:22.818Z,998.82
2017-11-12T05:58:22.813Z,998.82
2017-11-12T05:59:22.813Z,998.79
2017-11-12T06:00:22.802Z,998.83
2017-11-12T06:01:22.801Z,998.85
2017-11-12T06:02:22.798Z,998.87
2017-11-12T06:03:22.795Z,998.89
2017-11-12T06:04:22.787Z,998.91
2017-11-12T06:05:22.781Z,998.92
2017-11-12T06:06:22.778Z,998.94
2017-11-12T06:07:22.811Z,998.93
2017-11-12T06:08:22.782Z,998.93
2017-11-12T06:09:22.768Z,998.90
2017-11-12T06:10:22.780Z,998.87
2017-11-12T06:11:22.752Z,998.94
2017-11-12T06:12:22.749Z,998.88
2017-11-12T06:13:22.747Z,998.88
2017-11-12T06:14:22.742Z,998.92
2017-11-12T06:15:22.751Z,998.92
2017-11-12T06:16:22.735Z,998.91
2017-11-12T06:17:22.727Z,998.92
2017-11-12T06:18:22.728Z,998.92
2017-11-12T06:19:22.720Z,998.96
2017-11-12T06:20:22.746Z,998.94
2017-11-12T06:21:22.713Z,998.99
2017-11-12T06:22:22.711Z,998.97
2017-11-12T06:23:22.704Z,998.99
2017-11-12T06:24:22.703Z,999.01
2017-11-12T06:25:22.706Z,998.95
2017-11-12T06:26:22.698Z,998.97
2017-11-12T06:27:22.694Z,998.97
2017-11-12T06:28:22.680Z,998.94
2017-11-12T06:29:22.682Z,999.00
2017-11-12T06:30:22.674Z,999.00
2017-11-12T06:31:22.669Z,998.97
2017-11-12T06:32:22.664Z,999.00
2017-11-12T06:33:22.665Z,999.03
2017-11-12T06:34:22.654Z,998.99
2017-11-12T06:35:22.649Z,998.95
2017-11-12T06:36:22.651Z,998.99
2017-11-12T06:37:22.642Z,998.97
2017-11-12T06:38:22.639Z,998.95
2017-11-12T06:39:22.631Z,998.92
2017-11-12T06:40:22.637Z,998.95
2017-11-12T06:41:22.624Z,998.91
2017-11-12T06:42:22.623Z,998.84
2017-11-12T06:43:22.619Z,998.83
2017-11-12T06:44:22.626Z,998.87
2017-11-12T06:45:22.613Z,998.90
2017-11-12T06:46:22.611Z,998.91
2017-11-12T06:47:22.612Z,998.88
2017-11-12T06:48:22.597Z,998.87
2017-11-12T06:49:22.595Z,998.86
2017-11-12T06:50:22.596Z,998.88
2017-11-12T06:51:22.584Z,998.84
2017-11-12T06:52:22.585Z,998.86
2017-11-12T06:53:22.580Z,998.89
2017-11-12T06:54:22.575Z,998.87
2017-11-12T06:55:22.594Z,998.87
2017-11-12T06:56:22.563Z,998.90
2017-11-12T06:57:22.569Z,998.88
2017-11-12T06:58:22.558Z,998.89
2017-11-12T06:59:22.564Z,998.83
2017-11-12T07:00:22.553Z,998.81
2017-11-12T07:01:22.548Z,998.75
2017-11-12T07:02:22.538Z,998.75
2017-11-12T07:03:22.534Z,998.77
2017-11-12T07:04:22.531Z,998.76
2017-11-12T07:05:22.528Z,998.75
2017-11-12T07:06:22.525Z,998.73
2017-11-12T07:07:22.519Z,998.74
2017-11-12T07:08:22.518Z,998.73
2017-11-12T07:09:22.518Z,998.71
2017-11-12T07:10:22.509Z,998.70
2017-11-12T07:11:22.507Z,998.72
2017-11-12T07:12:22.504Z,998.70
2017-11-12T07:13:22.533Z,998.70
2017-11-12T07:14:22.499Z,998.68
2017-11-12T07:15:22.493Z,998.69
2017-11-12T07:16:22.490Z,998.73
2017-11-12T07:17:22.481Z,998.66
2017-11-12T07:18:22.479Z,998.66
2017-11-12T07:19:22.471Z,998.66
2017-11-12T07:20:22.479Z,998.69
2017-11-12T07:21:22.464Z,998.70
2017-11-12T07:22:22.487Z,998.68
2017-11-12T07:23:22.463Z,998.69
2017-11-12T07:24:22.463Z,998.66
2017-11-12T07:25:22.449Z,998.70
2017-11-12T07:26:22.448Z,998.69
2017-11-12T07:27:22.442Z,998.68
2017-11-12T07:28:22.448Z,998.69
2017-11-12T07:29:22.455Z,998.70
2017-11-12T07:30:22.434Z,998.68
2017-11-12T07:31:22.441Z,998.65
2017-11-12T07:32:22.422Z,998.69
2017-11-12T07:33:22.421Z,998.70
2017-11-12T07:34:22.423Z,998.74
2017-11-12T07:35:22.410Z,998.69
2017-11-12T07:36:22.411Z,998.67
2017-11-12T07:37:22.402Z,998.67
2017-11-12T07:38:22.405Z,998.65
2017-11-12T07:39:22.396Z,998.62
2017-11-12T07:40:22.400Z,998.70
2017-11-12T07:41:22.390Z,998.69
2017-11-12T07:42:22.390Z,998.62
2017-11-12T07:43:22.380Z,998.60
2017-11-12T07:44:22.377Z,998.60
2017-11-12T07:45:22.373Z,998.58
2017-11-12T07:46:22.375Z,998.59
2017-11-12T07:47:22.368Z,998.58
2017-11-12T07:48:22.365Z,998.53
2017-11-12T07:49:22.357Z,998.57
2017-11-12T07:50:22.354Z,998.56
2017-11-12T07:51:22.353Z,998.57
2017-11-12T07:52:22.353Z,998.54
2017-11-12T07:53:22.344Z,998.54
2017-11-12T07:54:22.349Z,998.51
2017-11-12T07:55:22.333Z,998.49
2017-11-12T07:56:22.345Z,998.48
2017-11-12T07:57:22.333Z,998.49
2017-11-12T07:58:22.328Z,998.47
2017-11-12T07:59:22.320Z,998.46
2017-11-12T08:00:22.317Z,998.48
2017-11-12T08:01:22.322Z,998.49
2017-11-12T08:02:22.313Z,998.48
2017-11-12T08:03:22.308Z,998.54
2017-11-12T08:04:22.301Z,998.44
2017-11-12T08:05:22.297Z,998.47
2017-11-12T08:06:22.297Z,998.46
2017-11-12T08:07:22.292Z,998.45
2017-11-12T08:08:22.287Z,998.42
2017-11-12T08:09:22.295Z,998.43
2017-11-12T08:10:22.282Z,998.41
2017-11-12T08:11:22.280Z,998.39
2017-11-12T08:12:22.275Z,998.39
2017-11-12T08:13:22.271Z,998.43
2017-11-12T08:14:22.268Z,998.41
2017-11-12T08:15:22.267Z,998.40
2017-11-12T08:16:22.258Z,998.37
2017-11-12T08:17:22.263Z,998.37
2017-11-12T08:18:22.254Z,998.38
2017-11-12T08:19:22.260Z,998.36
2017-11-12T08:20:22.247Z,998.34
2017-11-12T08:21:22.244Z,998.32
2017-11-12T08:22:22.236Z,998.33
2017-11-12T08:23:22.235Z,998.33
2017-11-12T08:24:22.233Z,998.38
2017-11-12T08:25:22.230Z,998.33
2017-11-12T08:26:22.223Z,998.32
2017-11-12T08:27:22.218Z,998.29
2017-11-12T08:28:22.217Z,998.30
2017-11-12T08:29:22.217Z,998.28
2017-11-12T08:30:22.219Z,998.21
2017-11-12T08:31:22.203Z,998.22
2017-11-12T08:32:22.209Z,998.21
2017-11-12T08:33:22.200Z,998.22
2017-11-12T08:34:22.201Z,998.23
2017-11-12T08:35:22.193Z,998.21
2017-11-12T08:36:22.189Z,998.25
2017-11-12T08:37:22.186Z,998.14
2017-11-12T08:38:22.197Z,998.17
2017-11-12T08:39:22.178Z,998.10
2017-11-12T08:40:22.183Z,998.22
2017-11-12T08:41:22.178Z,998.15
2017-11-12T08:42:22.172Z,998.21
2017-11-12T08:43:22.166Z,998.19
2017-11-12T08:44:22.405Z,998.20
2017-11-12T08:45:22.163Z,998.17
2017-11-12T08:46:22.155Z,998.23
2017-11-12T08:47:22.155Z,998.17
2017-11-12T08:48:22.161Z,998.15
2017-11-12T08:49:22.147Z,998.10
2017-11-12T08:50:22.143Z,998.16
2017-11-12T08:51:22.140Z,998.09
2017-11-12T08:52:22.141Z,998.11
2017-11-12T08:53:22.134Z,998.05
2017-11-12T08:54:22.151Z,998.06
2017-11-12T08:55:22.126Z,998.07
2017-11-12T08:56:22.124Z,998.11
2017-11-12T08:57:22.125Z,998.10
2017-11-12T08:58:22.120Z,998.08
2017-11-12T08:59:22.114Z,998.16
2017-11-12T09:00:22.113Z,998.13
2017-11-12T09:01:22.109Z,998.14
2017-11-12T09:02:22.103Z,998.15
2017-11-12T09:03:22.107Z,998.19
2017-11-12T09:04:22.102Z,998.16
2017-11-12T09:05:22.106Z,998.16
2017-11-12T09:06:22.100Z,998.13
2017-11-12T09:07:22.094Z,998.16
2017-11-12T09:08:22.089Z,998.14
2017-11-12T09:09:22.084Z,998.14
2017-11-12T09:10:22.086Z,998.09
2017-11-12T09:11:22.081Z,998.11
2017-11-12T09:12:22.089Z,998.08
2017-11-12T09:13:22.075Z,998.09
2017-11-12T09:14:22.076Z,998.05
2017-11-12T09:15:22.079Z,998.04
2017-11-12T09:16:22.064Z,998.00
2017-11-12T09:17:22.063Z,998.03
2017-11-12T09:18:22.086Z,997.97
2017-11-12T09:19:22.065Z,997.92
2017-11-12T09:20:22.060Z,997.92
2017-11-12T09:21:22.080Z,997.88
2017-11-12T09:22:22.062Z,997.88
2017-11-12T09:23:22.044Z,997.86
2017-11-12T09:24:22.041Z,997.85
2017-11-12T09:25:22.037Z,997.80
2017-11-12T09:26:22.035Z,997.81
2017-11-12T09:27:22.033Z,997.82
2017-11-12T09:28:22.030Z,997.79
2017-11-12T09:29:22.030Z,997.85
2017-11-12T09:30:22.026Z,997.82
2017-11-12T09:31:22.021Z,997.85
2017-11-12T09:32:22.020Z,997.86
2017-11-12T09:33:22.018Z,997.87
2017-11-12T09:34:22.014Z,997.86
2017-11-12T09:35:22.014Z,997.89
2017-11-12T09:36:22.006Z,997.83
2017-11-12T09:37:22.040Z,997.86
2017-11-12T09:38:22.003Z,997.79
2017-11-12T09:39:21.999Z,997.81
2017-11-12T09:40:21.995Z,997.77
2017-11-12T09:41:21.996Z,997.81
2017-11-12T09:42:21.994Z,997.73
2017-11-12T09:43:21.986Z,997.73
2017-11-12T09:44:21.986Z,997.73
2017-11-12T09:45:21.991Z,997.66
2017-11-12T09:46:21.984Z,997.65
2017-11-12T09:47:21.977Z,997.68
2017-11-12T09:48:21.974Z,997.68
2017-11-12T09:49:21.975Z,997.69
2017-11-12T09:50:21.971Z,997.65
2017-11-12T09:51:21.972Z,997.64
2017-11-12T09:52:21.968Z,997.62
2017-11-12T09:53:21.966Z,997.58
2017-11-12T09:54:21.965Z,997.58
2017-11-12T09:55:21.953Z,997.57
2017-11-12T09:56:21.955Z,997.48
2017-11-12T09:57:21.955Z,997.49
2017-11-12T09:58:21.950Z,997.46
2017-11-12T09:59:21.949Z,997.42
2017-11-12T10:00:21.948Z,997.39
2017-11-12T10:01:21.942Z,997.41
2017-11-12T10:02:21.939Z,997.35
2017-11-12T10:03:21.936Z,997.33
2017-11-12T10:04:21.933Z,997.32
2017-11-12T10:05:21.934Z,997.29
2017-11-12T10:06:21.943Z,997.33
2017-11-12T10:07:21.925Z,997.29
2017-11-12T10:08:21.924Z,997.28
2017-11-12T10:09:21.921Z,997.21
2017-11-12T10:10:21.925Z,997.26
2017-11-12T10:11:21.925Z,997.20
2017-11-12T10:12:21.915Z,997.21
2017-11-12T10:13:21.917Z,997.24
2017-11-12T10:14:21.909Z,997.14
2017-11-12T10:15:21.915Z,997.20
2017-11-12T10:16:21.924Z,997.17
2017-11-12T10:17:21.904Z,997.15
2017-11-12T10:18:21.907Z,997.15
2017-11-12T10:19:21.902Z,997.18
2017-11-12T10:20:21.899Z,997.15
2017-11-12T10:21:21.895Z,997.12
2017-11-12T10:22:21.891Z,997.09
2017-11-12T10:23:21.899Z,997.10
2017-11-12T10:24:21.896Z,997.09
2017-11-12T10:25:21.891Z,997.11
2017-11-12T10:26:21.884Z,997.09
2017-11-12T10:27:21.881Z,997.07
2017-11-12T10:28:21.886Z,997.04
2017-11-12T10:29:21.877Z,997.03
2017-11-12T10:30:21.876Z,997.02
2017-11-12T10:31:21.889Z,997.01
2017-11-12T10:32:21.873Z,996.97
2017-11-12T10:33:21.870Z,996.96
2017-11-12T10:34:21.890Z,996.94
2017-11-12T10:35:21.865Z,996.95
2017-11-12T10:36:21.870Z,996.94
2017-11-12T10:37:21.863Z,996.99
2017-11-12T10:38:21.862Z,996.98
2017-11-12T10:39:21.855Z,997.00
2017-11-12T10:40:21.853Z,996.93
2017-11-12T10:41:21.855Z,996.95
2017-11-12T10:42:21.850Z,996.92
2017-11-12T10:43:21.854Z,996.90
2017-11-12T10:44:21.847Z,996.86
2017-11-12T10:45:21.865Z,996.84
2017-11-12T10:46:21.840Z,996.82
2017-11-12T10:47:21.844Z,996.78
2017-11-12T10:48:21.841Z,996.73
2017-11-12T10:49:21.852Z,996.67
2017-11-12T10:50:21.845Z,996.70
2017-11-12T10:51:21.835Z,996.69
2017-11-12T10:52:21.834Z,996.68
2017-11-12T10:53:21.839Z,996.65
2017-11-12T10:54:21.824Z,996.65
2017-11-12T10:55:21.830Z,996.65
2017-11-12T10:56:21.829Z,996.61
2017-11-12T10:57:21.821Z,996.64
2017-11-12T10:58:21.826Z,996.63
2017-11-12T10:59:21.813Z,996.63
2017-11-12T11:00:21.820Z,996.59
2017-11-12T11:01:21.831Z,996.55
2017-11-12T11:02:21.814Z,996.54
2017-11-12T11:03:21.818Z,996.45
2017-11-12T11:04:21.816Z,996.45
2017-11-12T11:05:21.806Z,996.48
2017-11-12T11:06:21.810Z,996.49
2017-11-12T11:07:21.801Z,996.47
2017-11-12T11:08:21.801Z,996.47
2017-11-12T11:09:21.810Z,996.49
2017-11-12T11:10:21.801Z,996.48
2017-11-12T11:11:21.806Z,996.46
2017-11-12T11:12:21.807Z,996.47
2017-11-12T11:13:21.808Z,996.49
2017-11-12T11:14:21.797Z,996.43
2017-11-12T11:15:21.791Z,996.50
2017-11-12T11:16:21.791Z,996.46
2017-11-12T11:17:21.794Z,996.43
2017-11-12T11:18:21.790Z,996.44
2017-11-12T11:19:21.785Z,996.46
2017-11-12T11:20:21.793Z,996.41
2017-11-12T11:21:21.793Z,996.42
2017-11-12T11:22:21.840Z,996.39
2017-11-12T11:23:21.780Z,996.43
2017-11-12T11:24:21.779Z,996.40
2017-11-12T11:25:21.782Z,996.42
2017-11-12T11:26:21.775Z,996.43
2017-11-12T11:27:21.795Z,996.42
2017-11-12T11:28:21.771Z,996.44
2017-11-12T11:29:21.775Z,996.40
2017-11-12T11:30:21.774Z,996.35
2017-11-12T11:31:21.768Z,996.39
2017-11-12T11:32:21.765Z,996.38
2017-11-12T11:33:21.768Z,996.34
2017-11-12T11:34:21.769Z,996.33
2017-11-12T11:35:21.770Z,996.30
2017-11-12T11:36:21.764Z,996.28
2017-11-12T11:37:21.757Z,996.27
2017-11-12T11:38:21.758Z,996.29
2017-11-12T11:39:21.754Z,996.28
2017-11-12T11:40:21.762Z,996.24
2017-11-12T11:41:21.752Z,996.27
2017-11-12T11:42:21.753Z,996.27
2017-11-12T11:43:21.748Z,996.26
2017-11-12T11:44:21.755Z,996.23
2017-11-12T11:45:21.751Z,996.25
2017-11-12T11:46:21.752Z,996.22
2017-11-12T11:47:21.756Z,996.26
2017-11-12T11:48:21.746Z,996.25
2017-11-12T11:49:21.746Z,996.25
2017-11-12T11:50:21.750Z,996.21
2017-11-12T11:51:21.749Z,996.18
2017-11-12T11:52:22.083Z,996.18
2017-11-12T11:53:21.740Z,996.20
2017-11-12T11:54:21.745Z,996.16
2017-11-12T11:55:21.737Z,996.16
2017-11-12T11:56:21.738Z,996.19
2017-11-12T11:57:21.737Z,996.19
2017-11-12T11:58:21.733Z,996.16
2017-11-12T11:59:21.735Z,996.12
2017-11-12T12:00:21.736Z,996.10
2017-11-12T12:01:21.740Z,996.08
2017-11-12T12:02:21.732Z,996.06
2017-11-12T12:03:21.731Z,996.11
2017-11-12T12:04:21.734Z,996.09
2017-11-12T12:05:21.732Z,996.11
2017-11-12T12:06:21.730Z,996.06
2017-11-12T12:07:21.724Z,996.09
2017-11-12T12:08:21.729Z,996.07
2017-11-12T12:09:21.735Z,996.07
2017-11-12T12:10:21.726Z,996.12
2017-11-12T12:11:21.721Z,996.12
2017-11-12T12:12:21.720Z,996.11
2017-11-12T12:13:21.752Z,996.10
2017-11-12T12:14:21.726Z,996.10
2017-11-12T12:15:21.722Z,996.16
2017-11-12T12:16:21.716Z,996.13
2017-11-12T12:17:21.711Z,996.08
2017-11-12T12:18:21.717Z,996.12
2017-11-12T12:19:21.717Z,996.07
2017-11-12T12:20:21.711Z,996.01
2017-11-12T12:21:21.717Z,996.05